Somerville, NJ (08876)

3:18 AM EDT on September 02, 2014 (GMT -0400)
Duke Farms, Hillsborough, NJ | Change Station
CLOSE
Current Station
Personal Weather Station
Location: Hillsborough Township, NJ
Elevation: 75 ft
Nearby Weather Stations

Elev 75 ft 40.54 °N, 74.62 °W | Updated 12 seconds ago

Partly Cloudy
Partly Cloudy
69.3 °F
Feels Like 69.3 °F
N
0.0
Wind Variable Wind from South
Gusts 1.0 mph

Today
High -- | Low -- °F
--% Chance of Precip.
Yesterday
High -- | Low -- °F
Precip. -- in
6:26 AM 7:29 PM
Waxing Crescent, 48% visible
Pressure 29.91 in
Visibility 7.0 miles
Clouds Few 400 ft
Dew Point 69 °F
Humidity 98%
Rainfall 0.00 in
Snow Depth Not available.
UV 0.0 out of 12
Pollen 5.00 out of 12
Air Quality Not available.
Flu Activity Not available.
METAR KSMQ 020653Z AUTO 00000KT 7SM FEW004 21/20 A2992 RMK AO2 SLP129 T02110200 PWINO $

More Conditions Fewer Conditions

Pressure 29.91 in
Visibility 7.0 miles
Clouds Few 400 ft
Dew Point 69 °F
Humidity 98%
Rainfall 0.00 in
Snow Depth Not available.
UV 0.0 out of 12
Pollen 5.00 out of 12
Air Quality Not available.
Flu Activity Not available.
METAR KSMQ 020653Z AUTO 00000KT 7SM FEW004 21/20 A2992 RMK AO2 SLP129 T02110200 PWINO $

More Conditions Fewer Conditions

10-Day Weather Forecast

Almanac

Astronomy

Sep. 02, 2014 Rise Set
Actual Time 6:26 AM EDT 7:29 PM EDT
Civil Twilight 5:58 AM EDT 7:56 PM EDT
Nautical Twilight 5:25 AM EDT 8:30 PM EDT
Astronomical Twilight 4:50 AM EDT 9:04 PM EDT
Moon 2:10 PM EDT No Moon Set
Length of Visible Light 13h 58m
Length of Day
13h 02m
Tomorrow will be 2m 35s shorter.
Waxing Crescent, 48% of the Moon is Illuminated
Today
Waxing Crescent
Sep 2
First Quarter
Sep 8
Full
Sep 15
Last Quarter
Sep 24
New

Today's Extremes

State Highs State Lows

Community

WunderPhotos

Upload Photos

1,749,589 photos uploaded!

WunderBlogs® & News

Nearby

Snow Depth

Station Depth Elevation
No new snow has been reported.

Earthquake Activity

City Distance Mag. Time & Date
No recent earthquake activity has been reported nearby.
Minimum magnitude displayed is 2.5.

Coastal Water Temperatures

Place Temperature
Sandy Hook, NJ 77.0 °F
The Battery, NY 73.9 °F
Bergen Point West Reach, NJ 75.0 °F
Kings Point, NY 73.9 °F

Nearby Weather Stations